Time;durP1;ratioP1;P1;durP2;ratioP2;P2;SDS_P1;SDS_P2;PMS_P1;PMS_P2;Temp;Humidity;BMP_temperature;BMP_pressure;BME280_temperature;BME280_humidity;BME280_pressure;Samples;Min_cycle;Max_cycle;Signal;HPM_P1;HPM_P2
2021/08/29 00:02:02;;;;;;;7.73;7.10;;;;;;;;;;5033662;28;20619;-58
2021/08/29 00:04:30;;;;;;;12.30;8.10;;;;;;;;;;5033640;28;20445;-58
2021/08/29 00:06:57;;;;;;;10.40;8.87;;;;;;;;;;5032984;28;20531;-58
2021/08/29 00:09:25;;;;;;;9.50;7.70;;;;;;;;;;5033451;28;20502;-58
2021/08/29 00:11:52;;;;;;;14.47;8.80;;;;;;;;;;5033701;28;20498;-58
2021/08/29 00:14:19;;;;;;;9.63;8.03;;;;;;;;;;5033103;28;20562;-58
2021/08/29 00:16:46;;;;;;;11.20;8.80;;;;;;;;;;5033247;28;20519;-58
2021/08/29 00:19:14;;;;;;;11.07;8.60;;;;;;;;;;5033415;28;20449;-58
2021/08/29 00:21:42;;;;;;;13.23;9.60;;;;;;;;;;5033416;28;20526;-58
2021/08/29 00:24:10;;;;;;;9.70;8.70;;;;;;;;;;5035357;28;20444;-58
2021/08/29 00:26:37;;;;;;;11.80;9.20;;;;;;;;;;5037309;28;20464;-58
2021/08/29 00:29:04;;;;;;;12.20;9.90;;;;;;;;;;5037383;28;20452;-58
2021/08/29 00:31:31;;;;;;;11.80;10.00;;;;;;;;;;5037405;28;20448;-58
2021/08/29 00:33:59;;;;;;;15.00;9.73;;;;;;;;;;5037099;28;20476;-58
2021/08/29 00:36:26;;;;;;;13.13;10.60;;;;;;;;;;5036858;28;20936;-58
2021/08/29 00:38:55;;;;;;;11.23;10.13;;;;;;;;;;5037275;28;20503;-58
2021/08/29 00:41:22;;;;;;;10.87;9.77;;;;;;;;;;5036809;28;20857;-58
2021/08/29 00:43:49;;;;;;;11.43;10.17;;;;;;;;;;5036796;28;20440;-58
2021/08/29 00:46:17;;;;;;;14.37;10.97;;;;;;;;;;5036909;28;20453;-58
2021/08/29 00:48:45;;;;;;;11.77;10.57;;;;;;;;;;5036636;28;20452;-58
2021/08/29 00:51:13;;;;;;;15.70;12.07;;;;;;;;;;5036994;28;20499;-58
2021/08/29 00:53:40;;;;;;;12.73;10.47;;;;;;;;;;5037161;28;20523;-58
2021/08/29 00:56:08;;;;;;;15.00;12.30;;;;;;;;;;5036711;28;20924;-57
2021/08/29 00:58:36;;;;;;;13.53;11.97;;;;;;;;;;5037003;28;20445;-58
2021/08/29 01:01:03;;;;;;;15.27;12.43;;;;;;;;;;5036848;28;20503;-58
2021/08/29 01:03:31;;;;;;;16.00;12.30;;;;;;;;;;5037266;28;20441;-58
2021/08/29 01:06:02;;;;;;;13.70;12.17;;;;;;;;;;5036678;28;20468;-58
2021/08/29 01:08:33;;;;;;;16.30;12.57;;;;;;;;;;5061111;22;20500;-56
2021/08/29 01:11:05;;;;;;;14.90;13.30;;;;;;;;;;5036332;28;20475;-56
2021/08/29 01:13:34;;;;;;;14.67;13.00;;;;;;;;;;5036099;28;20972;-54
2021/08/29 01:16:04;;;;;;;16.67;14.87;;;;;;;;;;5036396;28;20503;-54
2021/08/29 01:18:32;;;;;;;17.60;14.17;;;;;;;;;;5036310;28;20469;-56
2021/08/29 01:21:03;;;;;;;19.03;14.80;;;;;;;;;;5036393;28;20519;-55
2021/08/29 01:23:31;;;;;;;17.10;14.23;;;;;;;;;;5036023;28;20904;-54
2021/08/29 01:26:03;;;;;;;18.40;14.60;;;;;;;;;;5036289;28;20445;-54
2021/08/29 01:28:35;;;;;;;24.17;14.37;;;;;;;;;;5036163;28;20476;-54
2021/08/29 01:31:04;;;;;;;16.40;14.03;;;;;;;;;;5036167;28;20434;-55
2021/08/29 01:33:32;;;;;;;16.27;13.67;;;;;;;;;;5036130;28;20481;-56
2021/08/29 01:35:59;;;;;;;15.20;12.83;;;;;;;;;;5035057;28;20544;-55
2021/08/29 01:38:26;;;;;;;14.90;12.93;;;;;;;;;;5035844;28;20464;-55
2021/08/29 01:40:54;;;;;;;17.20;13.30;;;;;;;;;;5035981;28;20869;-55
2021/08/29 01:43:21;;;;;;;17.30;12.37;;;;;;;;;;5035916;28;20495;-56
2021/08/29 01:45:49;;;;;;;16.73;12.27;;;;;;;;;;5035851;28;20437;-55
2021/08/29 01:48:18;;;;;;;18.43;13.53;;;;;;;;;;5035817;28;20469;-55
2021/08/29 01:50:45;;;;;;;16.37;14.00;;;;;;;;;;5035463;28;20449;-55
2021/08/29 01:53:12;;;;;;;16.80;12.80;;;;;;;;;;5035675;28;20511;-56
2021/08/29 01:55:39;;;;;;;16.50;12.97;;;;;;;;;;5035692;28;20468;-55
2021/08/29 01:58:07;;;;;;;15.03;12.93;;;;;;;;;;5035231;28;20873;-55
2021/08/29 02:00:34;;;;;;;14.13;12.40;;;;;;;;;;5035580;28;20444;-56
2021/08/29 02:03:02;;;;;;;13.27;11.87;;;;;;;;;;5035519;28;20445;-54
2021/08/29 02:05:31;;;;;;;13.90;12.43;;;;;;;;;;5035714;28;20510;-56
2021/08/29 02:08:01;;;;;;;18.60;12.13;;;;;;;;;;5035036;28;20984;-55
2021/08/29 02:10:28;;;;;;;16.20;13.40;;;;;;;;;;5035266;28;20507;-56
2021/08/29 02:12:57;;;;;;;15.47;12.80;;;;;;;;;;5035394;28;20453;-55
2021/08/29 02:15:29;;;;;;;18.23;13.40;;;;;;;;;;5035480;28;20477;-55
2021/08/29 02:17:57;;;;;;;15.97;13.23;;;;;;;;;;5035646;28;20552;-55
2021/08/29 02:20:26;;;;;;;14.67;12.83;;;;;;;;;;5035121;28;20934;-56
2021/08/29 02:22:55;;;;;;;17.97;13.77;;;;;;;;;;5035424;28;20441;-56
2021/08/29 02:25:22;;;;;;;15.47;13.77;;;;;;;;;;5035104;28;20944;-54
2021/08/29 02:27:50;;;;;;;17.27;12.53;;;;;;;;;;5035052;28;20470;-56
2021/08/29 02:30:18;;;;;;;16.30;13.13;;;;;;;;;;5035269;28;20445;-56
2021/08/29 02:32:45;;;;;;;16.73;12.43;;;;;;;;;;5035273;28;20449;-57
2021/08/29 02:35:13;;;;;;;15.43;12.43;;;;;;;;;;5034881;28;20476;-56
2021/08/29 02:37:41;;;;;;;15.77;12.63;;;;;;;;;;5035099;28;20547;-56
2021/08/29 02:40:11;;;;;;;15.50;13.03;;;;;;;;;;5034732;28;20507;-55
2021/08/29 02:42:39;;;;;;;16.23;12.87;;;;;;;;;;5035081;28;20445;-56
2021/08/29 02:45:08;;;;;;;17.07;14.13;;;;;;;;;;5034960;28;20844;-55
2021/08/29 02:47:35;;;;;;;18.17;13.27;;;;;;;;;;5033932;28;20469;-55
2021/08/29 02:50:03;;;;;;;17.53;12.63;;;;;;;;;;5035023;28;20567;-55
2021/08/29 02:52:30;;;;;;;18.83;12.70;;;;;;;;;;5034645;28;20449;-55
2021/08/29 02:54:58;;;;;;;17.37;13.03;;;;;;;;;;5034830;28;20531;-56
2021/08/29 02:57:32;;;;;;;15.13;13.40;;;;;;;;;;5034667;28;20523;-56
2021/08/29 02:59:59;;;;;;;16.83;14.37;;;;;;;;;;5034778;28;20488;-55
2021/08/29 03:02:27;;;;;;;15.93;12.53;;;;;;;;;;5034701;28;20449;-55
2021/08/29 03:04:54;;;;;;;15.70;11.93;;;;;;;;;;5034819;28;20438;-55
2021/08/29 03:07:22;;;;;;;15.27;12.03;;;;;;;;;;5034435;28;20863;-56
2021/08/29 03:09:49;;;;;;;20.67;13.40;;;;;;;;;;5034635;28;20457;-55
2021/08/29 03:12:16;;;;;;;15.03;11.17;;;;;;;;;;5034743;28;20445;-55
2021/08/29 03:14:46;;;;;;;15.90;11.10;;;;;;;;;;5034544;28;20481;-56
2021/08/29 03:17:13;;;;;;;16.73;13.07;;;;;;;;;;5034385;28;20972;-55
2021/08/29 03:19:40;;;;;;;13.00;11.10;;;;;;;;;;5034689;28;20453;-55
2021/08/29 03:22:08;;;;;;;12.00;10.33;;;;;;;;;;5034296;28;20937;-55
2021/08/29 03:24:35;;;;;;;10.60;9.50;;;;;;;;;;5034110;28;20453;-55
2021/08/29 03:27:03;;;;;;;13.33;10.13;;;;;;;;;;5034225;28;20522;-57
2021/08/29 03:29:30;;;;;;;11.07;9.33;;;;;;;;;;5034328;28;20457;-56
2021/08/29 03:32:00;;;;;;;11.80;8.90;;;;;;;;;;5034076;28;20515;-56
2021/08/29 03:34:28;;;;;;;10.33;8.60;;;;;;;;;;5034139;28;20477;-57
2021/08/29 03:36:57;;;;;;;11.13;8.63;;;;;;;;;;5034187;28;20523;-57
2021/08/29 03:39:26;;;;;;;11.83;8.10;;;;;;;;;;5033945;28;20522;-56
2021/08/29 03:41:56;;;;;;;10.93;8.47;;;;;;;;;;5033878;28;20456;-57
2021/08/29 03:44:23;;;;;;;9.97;8.20;;;;;;;;;;5034161;28;20511;-56
2021/08/29 03:46:50;;;;;;;10.77;9.27;;;;;;;;;;5034038;28;20498;-56
2021/08/29 03:49:19;;;;;;;10.10;9.10;;;;;;;;;;5033625;28;20932;-56
2021/08/29 03:51:47;;;;;;;8.97;8.07;;;;;;;;;;5033833;28;20445;-57
2021/08/29 03:54:15;;;;;;;10.33;8.60;;;;;;;;;;5033466;28;20841;-55
2021/08/29 03:56:42;;;;;;;11.40;9.40;;;;;;;;;;5033519;28;20499;-56
2021/08/29 03:59:10;;;;;;;10.40;9.17;;;;;;;;;;5033135;28;20453;-55
2021/08/29 04:01:37;;;;;;;9.67;8.67;;;;;;;;;;5033407;28;20453;-55
2021/08/29 04:04:04;;;;;;;10.10;8.87;;;;;;;;;;5033239;28;20499;-55
2021/08/29 04:08:31;;;;;;;9.77;8.50;;;;;;;;;;5090822;27;20549;-55
2021/08/29 04:11:00;;;;;;;13.77;8.70;;;;;;;;;;5090914;28;20445;-55
2021/08/29 04:13:28;;;;;;;8.70;7.80;;;;;;;;;;5090817;28;20852;-54
2021/08/29 04:15:55;;;;;;;10.50;8.43;;;;;;;;;;5090560;28;21016;-56
2021/08/29 04:18:23;;;;;;;9.70;8.30;;;;;;;;;;5090773;28;20877;-55
2021/08/29 04:20:51;;;;;;;9.40;8.40;;;;;;;;;;5090681;28;20446;-56
2021/08/29 04:23:19;;;;;;;9.60;8.60;;;;;;;;;;5090708;28;20454;-56
2021/08/29 04:25:48;;;;;;;10.60;9.50;;;;;;;;;;5090605;28;20523;-54
2021/08/29 04:28:15;;;;;;;11.10;9.60;;;;;;;;;;5090438;28;20597;-57
2021/08/29 04:30:43;;;;;;;10.30;8.43;;;;;;;;;;5090182;28;20845;-57
2021/08/29 04:33:10;;;;;;;9.83;8.20;;;;;;;;;;5090480;28;20499;-57
2021/08/29 04:35:37;;;;;;;10.17;8.87;;;;;;;;;;5090446;28;20875;-56
2021/08/29 04:38:04;;;;;;;10.80;7.87;;;;;;;;;;5090416;28;20503;-55
2021/08/29 04:40:33;;;;;;;9.30;8.07;;;;;;;;;;5090396;28;20520;-55
2021/08/29 04:43:02;;;;;;;8.50;7.60;;;;;;;;;;5090368;28;20534;-55
2021/08/29 04:45:30;;;;;;;8.60;7.57;;;;;;;;;;5089873;28;20443;-55
2021/08/29 04:47:57;;;;;;;8.50;7.73;;;;;;;;;;5090096;28;20626;-55
2021/08/29 04:50:24;;;;;;;9.17;8.20;;;;;;;;;;5089887;28;20987;-55
2021/08/29 04:52:51;;;;;;;10.37;8.27;;;;;;;;;;5090088;28;20491;-55
2021/08/29 04:55:18;;;;;;;10.70;9.20;;;;;;;;;;5090847;28;20446;-55
2021/08/29 04:57:46;;;;;;;8.37;7.57;;;;;;;;;;5089698;28;20459;-56
2021/08/29 05:00:15;;;;;;;11.10;9.27;;;;;;;;;;5090016;28;20446;-56
2021/08/29 05:02:42;;;;;;;9.53;8.47;;;;;;;;;;5089856;28;20865;-55
2021/08/29 05:05:10;;;;;;;11.67;9.50;;;;;;;;;;5090132;28;20495;-56
2021/08/29 05:07:37;;;;;;;10.13;8.90;;;;;;;;;;5089658;28;20486;-55
2021/08/29 05:10:05;;;;;;;8.83;7.93;;;;;;;;;;5089627;28;21002;-56
2021/08/29 05:12:32;;;;;;;9.73;8.57;;;;;;;;;;5089662;28;20504;-55
2021/08/29 05:14:59;;;;;;;10.20;8.30;;;;;;;;;;5089647;28;20438;-54
2021/08/29 05:17:28;;;;;;;10.30;9.17;;;;;;;;;;5089982;28;20454;-55
2021/08/29 05:19:55;;;;;;;10.77;9.67;;;;;;;;;;5076358;28;20938;-55
2021/08/29 05:22:22;;;;;;;10.30;8.77;;;;;;;;;;5076693;28;20508;-54
2021/08/29 05:24:50;;;;;;;11.23;9.87;;;;;;;;;;5076253;28;20859;-55
2021/08/29 05:27:17;;;;;;;10.63;8.90;;;;;;;;;;5075858;28;20479;-55
2021/08/29 05:29:44;;;;;;;10.97;9.80;;;;;;;;;;5076301;28;20497;-55
2021/08/29 05:32:11;;;;;;;11.07;9.33;;;;;;;;;;5076005;28;20512;-55
2021/08/29 05:34:40;;;;;;;11.47;8.53;;;;;;;;;;5075612;28;20447;-54
2021/08/29 05:37:07;;;;;;;9.43;8.30;;;;;;;;;;5075517;28;20460;-54
2021/08/29 05:39:34;;;;;;;10.20;9.10;;;;;;;;;;5075537;28;20500;-54
2021/08/29 05:42:01;;;;;;;12.37;9.40;;;;;;;;;;5075766;28;20447;-54
2021/08/29 05:44:29;;;;;;;10.17;8.53;;;;;;;;;;5075407;28;20857;-55
2021/08/29 05:46:56;;;;;;;9.43;8.40;;;;;;;;;;5075570;28;20556;-54
2021/08/29 05:49:23;;;;;;;9.27;7.77;;;;;;;;;;5075324;28;20519;-56
2021/08/29 05:51:52;;;;;;;9.83;8.70;;;;;;;;;;5075192;28;20447;-56
2021/08/29 05:54:19;;;;;;;10.90;8.70;;;;;;;;;;5075559;28;20508;-56
2021/08/29 05:56:47;;;;;;;10.17;9.00;;;;;;;;;;5075100;28;20927;-55
2021/08/29 05:59:14;;;;;;;11.50;10.30;;;;;;;;;;5075375;28;20447;-55
2021/08/29 06:01:42;;;;;;;10.20;8.47;;;;;;;;;;5075388;28;20520;-54
2021/08/29 06:04:09;;;;;;;13.47;9.33;;;;;;;;;;5075006;28;20500;-57
2021/08/29 06:06:36;;;;;;;11.10;9.30;;;;;;;;;;5075009;28;20459;-56
2021/08/29 06:09:05;;;;;;;10.47;9.47;;;;;;;;;;5075257;28;20481;-56
2021/08/29 06:11:32;;;;;;;10.23;9.20;;;;;;;;;;5075182;28;20450;-55
2021/08/29 06:13:59;;;;;;;10.50;9.43;;;;;;;;;;5074737;28;20854;-55
2021/08/29 06:16:27;;;;;;;10.17;9.13;;;;;;;;;;5075049;28;20443;-55
2021/08/29 06:18:54;;;;;;;10.10;9.10;;;;;;;;;;5074999;28;20459;-55
2021/08/29 06:21:21;;;;;;;9.57;8.57;;;;;;;;;;5074977;28;20443;-55
2021/08/29 06:23:48;;;;;;;9.23;8.33;;;;;;;;;;5074758;28;20500;-55
2021/08/29 06:26:17;;;;;;;10.80;9.27;;;;;;;;;;5074817;28;20435;-55
2021/08/29 06:28:44;;;;;;;11.83;9.40;;;;;;;;;;5074736;28;20479;-55
2021/08/29 06:31:11;;;;;;;11.03;9.27;;;;;;;;;;5073786;28;20512;-56
2021/08/29 06:33:39;;;;;;;9.13;8.23;;;;;;;;;;5074786;28;20857;-55
2021/08/29 06:36:06;;;;;;;10.20;8.40;;;;;;;;;;5074534;28;21003;-55
2021/08/29 06:38:33;;;;;;;9.63;8.73;;;;;;;;;;5074331;28;20455;-56
2021/08/29 06:41:02;;;;;;;10.47;9.47;;;;;;;;;;5074702;28;20485;-55
2021/08/29 06:43:30;;;;;;;11.57;9.30;;;;;;;;;;5074318;28;20879;-55
2021/08/29 06:45:58;;;;;;;11.33;9.20;;;;;;;;;;5074504;28;20864;-55
2021/08/29 06:48:25;;;;;;;10.23;9.20;;;;;;;;;;5074194;28;20556;-55
2021/08/29 06:50:52;;;;;;;8.93;7.93;;;;;;;;;;5074341;28;20455;-55
2021/08/29 06:53:19;;;;;;;10.27;8.57;;;;;;;;;;5074357;28;20450;-55
2021/08/29 06:55:46;;;;;;;9.67;8.60;;;;;;;;;;5074219;28;20992;-55
2021/08/29 06:58:14;;;;;;;9.00;8.10;;;;;;;;;;5074302;28;20459;-55
2021/08/29 07:00:42;;;;;;;9.80;8.80;;;;;;;;;;5074524;28;20447;-56
2021/08/29 07:03:09;;;;;;;9.20;8.30;;;;;;;;;;5074304;28;20470;-55
2021/08/29 07:05:37;;;;;;;10.13;9.00;;;;;;;;;;5074176;28;20859;-55
2021/08/29 07:08:05;;;;;;;10.57;8.80;;;;;;;;;;5084457;22;20917;-62
2021/08/29 07:10:32;;;;;;;10.83;9.53;;;;;;;;;;5034173;28;20445;-63
2021/08/29 07:12:59;;;;;;;9.00;7.90;;;;;;;;;;5034043;28;20475;-64
2021/08/29 07:15:26;;;;;;;10.43;8.30;;;;;;;;;;5034191;28;20441;-63
2021/08/29 07:17:55;;;;;;;9.50;8.60;;;;;;;;;;5034141;28;20518;-63
2021/08/29 07:20:22;;;;;;;9.10;8.20;;;;;;;;;;5033930;28;20433;-63
2021/08/29 07:22:50;;;;;;;8.53;7.73;;;;;;;;;;5034368;28;20526;-62
2021/08/29 07:25:17;;;;;;;10.30;8.27;;;;;;;;;;5033938;28;20449;-63
2021/08/29 07:27:44;;;;;;;7.70;6.90;;;;;;;;;;5033927;28;20480;-63
2021/08/29 07:30:11;;;;;;;7.43;6.73;;;;;;;;;;5033489;28;20944;-64
2021/08/29 07:32:39;;;;;;;7.77;7.07;;;;;;;;;;5033487;28;20503;-63
2021/08/29 07:35:08;;;;;;;8.07;7.37;;;;;;;;;;5033867;28;20441;-63
2021/08/29 07:37:35;;;;;;;7.60;6.90;;;;;;;;;;5033428;28;21223;-63
2021/08/29 07:40:03;;;;;;;6.93;6.00;;;;;;;;;;5033422;28;20862;-61
2021/08/29 07:42:30;;;;;;;7.30;6.60;;;;;;;;;;5033640;28;20445;-63
2021/08/29 07:44:57;;;;;;;6.80;6.00;;;;;;;;;;5033850;28;20507;-63
2021/08/29 07:47:25;;;;;;;7.57;6.87;;;;;;;;;;5033797;28;20444;-66
2021/08/29 07:49:52;;;;;;;7.97;6.67;;;;;;;;;;5033536;28;20548;-63
2021/08/29 07:52:21;;;;;;;7.53;6.93;;;;;;;;;;5033905;28;20507;-64
2021/08/29 07:54:48;;;;;;;6.80;6.20;;;;;;;;;;5033565;28;20503;-64
2021/08/29 07:57:16;;;;;;;8.20;7.50;;;;;;;;;;5033432;28;20445;-63
2021/08/29 07:59:43;;;;;;;9.50;7.27;;;;;;;;;;5033798;28;20519;-63
2021/08/29 08:02:11;;;;;;;7.67;6.97;;;;;;;;;;5033553;28;20449;-63
2021/08/29 08:04:38;;;;;;;8.03;7.23;;;;;;;;;;5033407;28;20933;-64
2021/08/29 08:07:06;;;;;;;7.33;6.70;;;;;;;;;;5033443;28;20498;-63
2021/08/29 08:09:34;;;;;;;8.03;7.17;;;;;;;;;;5033024;28;20887;-64
2021/08/29 08:12:02;;;;;;;8.40;7.57;;;;;;;;;;5033991;28;20494;-63
2021/08/29 08:14:29;;;;;;;8.80;7.90;;;;;;;;;;5033303;28;20520;-62
2021/08/29 08:16:56;;;;;;;7.37;6.27;;;;;;;;;;5033213;28;20445;-62
2021/08/29 08:19:24;;;;;;;9.00;7.20;;;;;;;;;;5033056;28;20519;-64
2021/08/29 08:21:51;;;;;;;7.40;6.70;;;;;;;;;;5033041;28;20453;-64
2021/08/29 08:24:18;;;;;;;10.63;6.93;;;;;;;;;;5032652;28;20995;-64
2021/08/29 08:26:47;;;;;;;7.67;6.97;;;;;;;;;;5032677;28;20452;-63
2021/08/29 08:29:14;;;;;;;9.03;6.80;;;;;;;;;;5032933;28;20508;-64
2021/08/29 08:31:41;;;;;;;7.60;6.90;;;;;;;;;;5032666;28;21086;-62
2021/08/29 08:34:08;;;;;;;7.57;6.50;;;;;;;;;;5032895;28;20449;-64
2021/08/29 08:36:36;;;;;;;6.30;5.70;;;;;;;;;;5033095;28;20441;-63
2021/08/29 08:39:03;;;;;;;7.33;6.60;;;;;;;;;;5033033;28;20866;-65
2021/08/29 08:41:30;;;;;;;6.63;6.03;;;;;;;;;;5032977;28;20522;-64
2021/08/29 08:43:59;;;;;;;6.70;6.10;;;;;;;;;;5033093;28;20448;-65
2021/08/29 08:46:26;;;;;;;6.80;6.10;;;;;;;;;;5033214;28;20441;-64
2021/08/29 08:48:53;;;;;;;6.50;5.87;;;;;;;;;;5032620;28;21007;-63
2021/08/29 08:51:25;;;;;;;6.63;6.03;;;;;;;;;;5033092;28;20452;-62
2021/08/29 08:53:53;;;;;;;5.90;5.40;;;;;;;;;;5034220;28;20878;-64
2021/08/29 08:56:20;;;;;;;6.53;5.57;;;;;;;;;;5036803;28;20498;-63
2021/08/29 08:58:48;;;;;;;7.30;6.27;;;;;;;;;;5036362;28;20515;-64
2021/08/29 09:01:17;;;;;;;5.80;5.23;;;;;;;;;;5036221;28;20506;-63
2021/08/29 09:03:44;;;;;;;6.93;6.30;;;;;;;;;;5036778;28;20495;-64
2021/08/29 09:06:11;;;;;;;6.47;5.83;;;;;;;;;;5036647;28;20503;-66
2021/08/29 09:08:39;;;;;;;7.07;6.37;;;;;;;;;;5036349;28;20489;-64
2021/08/29 09:11:06;;;;;;;6.63;6.13;;;;;;;;;;5036119;28;20544;-63
2021/08/29 09:13:52;;;;;;;6.20;5.40;;;;;;;;;;5035933;28;20445;-63
2021/08/29 09:16:22;;;;;;;5.77;5.27;;;;;;;;;;5035650;28;20640;-63
2021/08/29 09:18:49;;;;;;;5.80;5.13;;;;;;;;;;5035654;28;20968;-64
2021/08/29 09:21:20;;;;;;;7.00;5.50;;;;;;;;;;5036047;28;20441;-64
2021/08/29 09:23:48;;;;;;;6.50;5.90;;;;;;;;;;5035631;28;20451;-64
2021/08/29 09:26:16;;;;;;;5.60;5.10;;;;;;;;;;5035638;28;20932;-64
2021/08/29 09:28:43;;;;;;;6.17;5.67;;;;;;;;;;5035881;28;20480;-64
2021/08/29 09:31:11;;;;;;;5.33;4.83;;;;;;;;;;5035896;28;20456;-63
2021/08/29 09:33:39;;;;;;;5.17;4.67;;;;;;;;;;5035968;28;20815;-63
2021/08/29 09:36:07;;;;;;;4.63;4.23;;;;;;;;;;5035875;28;20503;-63
2021/08/29 09:38:40;;;;;;;5.80;5.30;;;;;;;;;;5035870;28;20461;-63
2021/08/29 09:41:23;;;;;;;5.53;5.03;;;;;;;;;;5035788;28;20433;-63
2021/08/29 09:43:50;;;;;;;5.97;5.37;;;;;;;;;;5035759;28;20452;-65
2021/08/29 09:46:20;;;;;;;4.93;4.53;;;;;;;;;;5035962;28;20495;-63
2021/08/29 09:48:50;;;;;;;4.70;4.30;;;;;;;;;;5035642;28;20524;-64
2021/08/29 09:51:17;;;;;;;5.00;4.60;;;;;;;;;;5035761;28;20528;-63
2021/08/29 09:53:46;;;;;;;4.63;4.23;;;;;;;;;;5035182;28;20994;-63
2021/08/29 09:56:21;;;;;;;4.43;4.03;;;;;;;;;;5035661;28;20452;-64
2021/08/29 09:58:48;;;;;;;5.17;4.67;;;;;;;;;;5035424;28;20469;-64
2021/08/29 10:01:16;;;;;;;5.37;4.23;;;;;;;;;;5035202;28;20902;-65
2021/08/29 10:03:45;;;;;;;6.23;5.60;;;;;;;;;;5034890;28;20499;-63
2021/08/29 10:06:17;;;;;;;6.40;4.90;;;;;;;;;;5034845;28;20495;-64
2021/08/29 10:08:45;;;;;;;4.60;4.17;;;;;;;;;;5034781;28;20489;-64
2021/08/29 10:11:12;;;;;;;4.40;4.00;;;;;;;;;;5034786;28;21010;-64
2021/08/29 10:13:40;;;;;;;4.90;4.50;;;;;;;;;;5034755;28;20502;-64
2021/08/29 10:16:07;;;;;;;4.87;3.80;;;;;;;;;;5035188;28;20445;-64
2021/08/29 10:18:36;;;;;;;5.10;4.50;;;;;;;;;;5034987;28;20461;-64
2021/08/29 10:21:04;;;;;;;3.93;3.53;;;;;;;;;;5034942;28;20453;-64
2021/08/29 10:23:33;;;;;;;4.63;4.23;;;;;;;;;;5034672;28;20457;-63
2021/08/29 10:26:01;;;;;;;3.57;3.27;;;;;;;;;;5034842;28;20445;-64
2021/08/29 10:28:29;;;;;;;4.67;3.90;;;;;;;;;;5034735;28;20526;-64
2021/08/29 10:30:58;;;;;;;3.50;3.20;;;;;;;;;;5034262;28;20514;-63
2021/08/29 10:33:25;;;;;;;4.13;3.73;;;;;;;;;;5034706;28;20444;-64
2021/08/29 10:35:52;;;;;;;4.17;3.30;;;;;;;;;;5034662;28;20444;-64
2021/08/29 10:38:20;;;;;;;4.33;3.70;;;;;;;;;;5034691;28;20871;-64
2021/08/29 10:40:49;;;;;;;4.03;3.60;;;;;;;;;;5034698;28;20441;-63
2021/08/29 10:43:16;;;;;;;4.50;4.10;;;;;;;;;;5034940;28;20528;-64
2021/08/29 10:45:44;;;;;;;4.00;3.70;;;;;;;;;;5034509;28;20862;-64
2021/08/29 10:48:12;;;;;;;7.13;4.10;;;;;;;;;;5034216;28;21042;-64
2021/08/29 10:50:40;;;;;;;3.73;3.33;;;;;;;;;;5034645;28;20539;-63
2021/08/29 10:53:22;;;;;;;4.20;3.80;;;;;;;;;;5034539;28;20452;-63
2021/08/29 10:55:50;;;;;;;3.80;3.50;;;;;;;;;;5034178;28;20445;-64
2021/08/29 10:58:21;;;;;;;4.13;3.83;;;;;;;;;;5033901;28;20519;-64
2021/08/29 11:00:49;;;;;;;3.80;3.50;;;;;;;;;;5034281;28;20503;-63
2021/08/29 11:03:28;;;;;;;4.00;3.63;;;;;;;;;;5033945;28;20933;-63
2021/08/29 11:05:55;;;;;;;4.50;4.10;;;;;;;;;;5034078;28;20908;-65
2021/08/29 11:08:26;;;;;;;4.23;3.93;;;;;;;;;;5033615;28;20503;-63
2021/08/29 11:10:55;;;;;;;4.20;3.90;;;;;;;;;;5034022;28;20457;-63
2021/08/29 11:13:35;;;;;;;5.00;4.30;;;;;;;;;;5033697;28;20933;-63
2021/08/29 11:16:18;;;;;;;3.87;3.57;;;;;;;;;;5033729;28;20445;-63
2021/08/29 11:19:13;;;;;;;4.07;3.60;;;;;;;;;;5031665;28;21059;-63
2021/08/29 11:21:58;;;;;;;4.17;3.87;;;;;;;;;;4999052;28;20959;-62
2021/08/29 11:24:47;;;;;;;4.13;3.73;;;;;;;;;;5024408;28;20480;-63
2021/08/29 11:27:29;;;;;;;3.70;3.40;;;;;;;;;;5033856;28;20429;-63
2021/08/29 11:29:59;;;;;;;4.70;4.30;;;;;;;;;;5033142;28;20971;-64
2021/08/29 11:32:33;;;;;;;4.10;3.70;;;;;;;;;;5033999;28;20450;-63
2021/08/29 11:35:10;;;;;;;3.60;3.37;;;;;;;;;;5033588;28;20996;-63
2021/08/29 11:37:37;;;;;;;4.10;3.70;;;;;;;;;;5033482;28;20515;-63
2021/08/29 11:40:06;;;;;;;3.40;3.10;;;;;;;;;;5033618;28;20514;-63
2021/08/29 11:42:33;;;;;;;2.97;2.67;;;;;;;;;;5033266;28;20510;-63
2021/08/29 11:45:02;;;;;;;3.20;3.00;;;;;;;;;;5033293;28;20921;-63
2021/08/29 11:47:37;;;;;;;2.90;2.70;;;;;;;;;;5033435;28;20794;-64
2021/08/29 11:50:05;;;;;;;2.70;2.50;;;;;;;;;;5033097;28;20460;-63
2021/08/29 11:52:35;;;;;;;2.63;2.43;;;;;;;;;;5033163;28;20507;-63
2021/08/29 11:55:07;;;;;;;5.13;2.77;;;;;;;;;;5033127;28;21008;-63
2021/08/29 11:57:46;;;;;;;2.90;2.70;;;;;;;;;;5033261;28;20440;-63
2021/08/29 12:00:16;;;;;;;3.70;3.00;;;;;;;;;;5033201;28;20512;-63
2021/08/29 12:02:45;;;;;;;3.80;3.40;;;;;;;;;;5033321;28;20445;-63
2021/08/29 12:05:14;;;;;;;4.93;3.43;;;;;;;;;;5033332;28;20452;-63
2021/08/29 12:07:46;;;;;;;3.17;2.87;;;;;;;;;;5032737;28;20984;-64
2021/08/29 12:10:13;;;;;;;5.90;2.27;;;;;;;;;;5033141;28;20465;-63
2021/08/29 12:12:41;;;;;;;2.87;2.67;;;;;;;;;;5033079;28;20448;-63
2021/08/29 12:15:11;;;;;;;2.63;2.43;;;;;;;;;;5033867;28;20445;-63
2021/08/29 12:17:40;;;;;;;2.73;2.53;;;;;;;;;;5032683;28;20523;-63
2021/08/29 12:20:08;;;;;;;3.00;2.73;;;;;;;;;;5033172;28;20536;-63
2021/08/29 12:22:36;;;;;;;3.77;3.43;;;;;;;;;;5033261;28;20498;-62
2021/08/29 12:25:04;;;;;;;3.03;2.83;;;;;;;;;;5033022;28;20496;-62
2021/08/29 12:27:31;;;;;;;3.53;3.23;;;;;;;;;;5032722;28;20940;-63
2021/08/29 12:29:59;;;;;;;4.03;3.63;;;;;;;;;;5035829;28;20888;-62
2021/08/29 12:32:27;;;;;;;3.90;3.60;;;;;;;;;;5036836;28;20444;-64
2021/08/29 12:34:58;;;;;;;4.13;3.83;;;;;;;;;;5036423;28;20453;-62
2021/08/29 12:37:25;;;;;;;7.23;4.80;;;;;;;;;;5036781;28;20483;-62
2021/08/29 12:39:57;;;;;;;4.33;3.93;;;;;;;;;;5036827;28;20920;-62
2021/08/29 12:42:25;;;;;;;4.37;3.80;;;;;;;;;;5037127;28;20503;-62
2021/08/29 12:44:53;;;;;;;3.20;2.90;;;;;;;;;;5037147;28;20523;-62
2021/08/29 12:47:20;;;;;;;3.37;3.07;;;;;;;;;;5037481;28;20441;-62
2021/08/29 12:49:48;;;;;;;3.57;3.27;;;;;;;;;;5036995;28;20472;-63
2021/08/29 12:52:19;;;;;;;3.30;3.00;;;;;;;;;;5036838;28;20452;-63
2021/08/29 12:54:47;;;;;;;3.57;3.27;;;;;;;;;;5037423;28;20518;-63
2021/08/29 12:57:14;;;;;;;3.53;3.10;;;;;;;;;;5036555;28;20453;-65
2021/08/29 12:59:42;;;;;;;3.40;3.17;;;;;;;;;;5035993;28;20518;-63
2021/08/29 13:02:18;;;;;;;4.10;3.70;;;;;;;;;;5035989;28;20449;-63
2021/08/29 13:04:47;;;;;;;3.80;3.33;;;;;;;;;;5037041;28;20425;-63
2021/08/29 13:07:14;;;;;;;3.57;3.20;;;;;;;;;;5036152;28;20528;-63
2021/08/29 13:09:43;;;;;;;4.73;2.83;;;;;;;;;;5036986;28;20489;-63
2021/08/29 13:12:22;;;;;;;3.70;3.40;;;;;;;;;;5035847;28;20502;-63
2021/08/29 13:14:49;;;;;;;3.43;3.13;;;;;;;;;;5035822;28;20429;-63
2021/08/29 13:17:17;;;;;;;4.37;3.60;;;;;;;;;;5036005;28;20514;-64
2021/08/29 13:19:44;;;;;;;4.00;2.87;;;;;;;;;;5035581;28;21023;-63
2021/08/29 13:22:12;;;;;;;4.27;3.87;;;;;;;;;;5035943;28;20453;-63
2021/08/29 13:24:39;;;;;;;7.60;3.87;;;;;;;;;;5035469;28;20940;-63
2021/08/29 13:27:18;;;;;;;3.83;3.53;;;;;;;;;;5035528;28;20461;-63
2021/08/29 13:29:46;;;;;;;4.30;3.90;;;;;;;;;;5035746;28;20465;-62
2021/08/29 13:32:14;;;;;;;3.50;3.20;;;;;;;;;;5035665;28;20808;-62
2021/08/29 13:34:41;;;;;;;6.60;3.50;;;;;;;;;;5036158;28;20498;-63
2021/08/29 13:37:11;;;;;;;3.93;3.37;;;;;;;;;;5035428;28;20445;-63
2021/08/29 13:39:42;;;;;;;4.47;4.07;;;;;;;;;;5034981;28;20972;-63
2021/08/29 13:42:23;;;;;;;4.13;3.73;;;;;;;;;;5035321;28;20545;-63
2021/08/29 13:44:52;;;;;;;4.40;4.10;;;;;;;;;;5035526;28;20495;-63
2021/08/29 13:47:19;;;;;;;4.70;4.30;;;;;;;;;;5035481;28;20444;-64
2021/08/29 13:49:47;;;;;;;4.00;3.70;;;;;;;;;;5034886;28;20484;-63
2021/08/29 13:52:17;;;;;;;4.10;3.80;;;;;;;;;;5035153;28;20862;-63
2021/08/29 13:54:45;;;;;;;4.67;4.27;;;;;;;;;;5035754;28;20516;-63
2021/08/29 13:57:12;;;;;;;5.47;4.30;;;;;;;;;;5034975;28;20453;-63
2021/08/29 13:59:40;;;;;;;5.40;4.90;;;;;;;;;;5034959;28;20587;-63
2021/08/29 14:02:08;;;;;;;4.20;3.80;;;;;;;;;;5035022;28;20502;-62
2021/08/29 14:04:35;;;;;;;6.70;4.40;;;;;;;;;;5035727;28;20503;-63
2021/08/29 14:07:02;;;;;;;4.60;4.20;;;;;;;;;;5034937;28;20924;-63
2021/08/29 14:09:30;;;;;;;4.17;3.83;;;;;;;;;;5034510;28;20515;-62
2021/08/29 14:11:57;;;;;;;4.80;3.70;;;;;;;;;;5035109;28;20553;-63
2021/08/29 14:14:24;;;;;;;4.90;4.00;;;;;;;;;;5034717;28;20948;-62
2021/08/29 14:16:53;;;;;;;4.30;3.90;;;;;;;;;;5035088;28;20495;-62
2021/08/29 14:19:20;;;;;;;11.90;4.60;;;;;;;;;;5034333;28;20980;-62
2021/08/29 14:21:47;;;;;;;4.83;4.33;;;;;;;;;;5035071;28;20499;-62
2021/08/29 14:24:15;;;;;;;4.50;4.10;;;;;;;;;;5034970;28;20449;-62
2021/08/29 14:26:42;;;;;;;4.20;3.73;;;;;;;;;;5034627;28;20449;-62
2021/08/29 14:29:11;;;;;;;6.03;3.93;;;;;;;;;;5034487;28;20885;-63
2021/08/29 14:31:38;;;;;;;6.23;4.37;;;;;;;;;;5034878;28;20542;-64
2021/08/29 14:34:06;;;;;;;8.00;5.37;;;;;;;;;;5034260;28;20445;-63
2021/08/29 14:36:34;;;;;;;6.07;5.47;;;;;;;;;;5034558;28;20526;-62
2021/08/29 14:39:01;;;;;;;6.20;5.53;;;;;;;;;;5035233;28;20473;-62
2021/08/29 14:41:29;;;;;;;6.50;5.90;;;;;;;;;;5035309;28;20457;-63
2021/08/29 14:43:56;;;;;;;5.63;5.10;;;;;;;;;;5034227;28;20457;-64
2021/08/29 14:46:23;;;;;;;6.40;5.80;;;;;;;;;;5034444;28;20507;-63